createdAt,value
2022-08-09T00:00:04.161Z,1.60
2022-08-09T00:02:37.565Z,1.23
2022-08-09T00:06:17.737Z,1.50
2022-08-09T00:08:10.077Z,1.08
2022-08-09T00:10:38.546Z,1.48
2022-08-09T00:13:06.681Z,1.27
2022-08-09T00:15:58.659Z,1.20
2022-08-09T00:18:29.559Z,0.98
2022-08-09T00:20:58.546Z,1.02
2022-08-09T00:23:55.460Z,1.40
2022-08-09T00:26:13.797Z,1.38
2022-08-09T00:28:42.307Z,1.70
2022-08-09T00:31:57.102Z,1.60
2022-08-09T00:34:09.060Z,1.52
2022-08-09T00:36:41.715Z,1.55
2022-08-09T00:39:10.962Z,1.30
2022-08-09T00:44:11.083Z,1.48
2022-08-09T00:44:46.957Z,0.55
2022-08-09T00:47:15.439Z,1.55
2022-08-09T00:49:54.509Z,1.85
2022-08-09T00:52:30.420Z,1.40
2022-08-09T00:54:58.997Z,1.38
2022-08-09T00:57:33.862Z,1.60
2022-08-09T01:00:05.274Z,1.60
2022-08-09T01:02:49.264Z,1.30
2022-08-09T01:05:21.848Z,1.67
2022-08-09T01:08:00.676Z,1.65
2022-08-09T01:10:31.802Z,1.75
2022-08-09T01:13:04.436Z,1.40
2022-08-09T01:15:40.947Z,1.90
2022-08-09T01:18:14.405Z,1.38
2022-08-09T01:20:47.240Z,1.20
2022-08-09T01:24:01.868Z,1.67
2022-08-09T01:26:22.973Z,1.48
2022-08-09T01:28:56.927Z,1.60
2022-08-09T01:32:31.530Z,1.73
2022-08-09T01:34:18.092Z,1.85
2022-08-09T01:36:46.583Z,1.90
2022-08-09T01:39:17.531Z,1.35
2022-08-09T01:41:55.629Z,1.83
2022-08-09T01:44:30.969Z,1.85
2022-08-09T01:46:59.087Z,1.70
2022-08-09T01:49:38.753Z,2.05
2022-08-09T01:52:10.029Z,2.08
2022-08-09T01:54:39.291Z,1.90
2022-08-09T01:57:09.595Z,2.10
2022-08-09T01:59:50.781Z,1.67
2022-08-09T02:02:21.805Z,2.00
2022-08-09T02:04:50.778Z,1.90
2022-08-09T02:08:39.746Z,2.13
2022-08-09T02:10:09.815Z,2.10
2022-08-09T02:12:39.311Z,1.50
2022-08-09T02:15:11.722Z,1.98
2022-08-09T02:18:10.213Z,2.13
2022-08-09T02:20:38.190Z,1.98
2022-08-09T02:23:07.724Z,1.77
2022-08-09T02:25:42.370Z,1.73
2022-08-09T02:28:17.871Z,2.13
2022-08-09T02:30:49.823Z,2.28
2022-08-09T02:33:22.979Z,2.03
2022-08-09T02:36:02.729Z,1.80
2022-08-09T02:38:32.780Z,1.98
2022-08-09T02:41:04.356Z,1.48
2022-08-09T02:43:51.804Z,1.88
2022-08-09T02:46:23.946Z,1.90
2022-08-09T02:48:52.929Z,1.77
2022-08-09T02:51:22.633Z,2.33
2022-08-09T02:54:00.846Z,1.80
2022-08-09T02:56:31.402Z,1.65
2022-08-09T02:59:00.482Z,2.30
2022-08-09T03:02:05.183Z,2.00
2022-08-09T03:04:19.528Z,2.10
2022-08-09T03:06:48.689Z,2.15
2022-08-09T03:09:17.449Z,1.90
2022-08-09T03:12:06.749Z,2.15
2022-08-09T03:14:34.057Z,2.33
2022-08-09T03:17:07.098Z,1.90
2022-08-09T03:19:59.589Z,1.90
2022-08-09T03:22:29.951Z,2.13
2022-08-09T03:25:05.916Z,2.42
2022-08-09T03:27:48.321Z,2.10
2022-08-09T03:30:30.159Z,1.77
2022-08-09T03:33:12.962Z,2.40
2022-08-09T03:36:12.431Z,2.65
2022-08-09T03:38:35.804Z,2.08
2022-08-09T03:41:05.044Z,1.65
2022-08-09T03:43:33.408Z,2.38
2022-08-09T03:46:20.031Z,2.50
2022-08-09T03:49:03.668Z,2.22
2022-08-09T03:51:57.381Z,2.60
2022-08-09T03:54:29.721Z,2.30
2022-08-09T03:56:58.416Z,2.47
2022-08-09T03:59:27.235Z,2.35
2022-08-09T04:01:56.968Z,2.60
2022-08-09T04:04:32.546Z,2.53
2022-08-09T04:07:04.845Z,2.47
2022-08-09T04:09:47.410Z,2.50
2022-08-09T04:12:30.767Z,2.05
2022-08-09T04:15:01.913Z,2.60
2022-08-09T04:17:31.337Z,2.28
2022-08-09T04:20:02.638Z,2.85
2022-08-09T04:22:32.092Z,2.28
2022-08-09T04:25:00.017Z,2.40
2022-08-09T04:27:29.407Z,2.40
2022-08-09T04:29:57.128Z,3.30
2022-08-09T04:32:33.791Z,2.80
2022-08-09T04:35:08.670Z,2.22
2022-08-09T04:37:45.203Z,2.63
2022-08-09T04:40:28.935Z,2.72
2022-08-09T04:43:02.533Z,2.65
2022-08-09T04:45:35.956Z,2.50
2022-08-09T04:48:19.083Z,2.50
2022-08-09T04:50:50.064Z,3.03
2022-08-09T04:53:17.822Z,2.83
2022-08-09T04:55:58.772Z,2.85
2022-08-09T04:58:27.313Z,2.63
2022-08-09T05:00:55.290Z,2.47
2022-08-09T05:03:40.190Z,2.67
2022-08-09T05:06:26.792Z,3.25
2022-08-09T05:09:00.403Z,2.35
2022-08-09T05:11:32.473Z,2.65
2022-08-09T05:14:06.187Z,3.00
2022-08-09T05:16:58.433Z,2.83
2022-08-09T05:19:25.618Z,2.55
2022-08-09T05:21:55.248Z,2.20
2022-08-09T05:24:24.214Z,2.15
2022-08-09T05:26:52.101Z,2.50
2022-08-09T05:29:21.260Z,2.58
2022-08-09T05:31:56.695Z,2.65
2022-08-09T05:34:30.856Z,2.75
2022-08-09T05:37:01.828Z,2.80
2022-08-09T05:39:36.377Z,3.10
2022-08-09T05:42:10.132Z,3.45
2022-08-09T05:44:47.786Z,2.85
2022-08-09T05:47:18.803Z,2.70
2022-08-09T05:50:23.579Z,2.03
2022-08-09T05:52:35.646Z,2.65
2022-08-09T05:55:07.258Z,2.38
2022-08-09T05:57:51.072Z,2.60
2022-08-09T06:00:23.079Z,2.05
2022-08-09T06:02:54.125Z,2.70
2022-08-09T06:05:30.654Z,2.45
2022-08-09T06:08:13.342Z,3.03
2022-08-09T06:10:40.984Z,2.15
2022-08-09T06:13:12.466Z,3.10
2022-08-09T06:15:47.820Z,2.70
2022-08-09T06:18:20.431Z,3.42
2022-08-09T06:20:54.860Z,3.03
2022-08-09T06:23:58.299Z,1.70
2022-08-09T06:26:14.714Z,2.60
2022-08-09T06:28:47.683Z,2.00
2022-08-09T06:31:15.865Z,2.63
2022-08-09T06:33:48.925Z,2.80
2022-08-09T06:36:27.255Z,2.08
2022-08-09T06:38:58.997Z,2.83
2022-08-09T06:42:07.969Z,2.10
2022-08-09T06:44:18.374Z,2.22
2022-08-09T06:46:48.153Z,2.60
2022-08-09T06:49:29.186Z,2.03
2022-08-09T06:52:05.603Z,2.30
2022-08-09T06:54:36.956Z,2.60
2022-08-09T06:57:06.669Z,1.80
2022-08-09T07:00:52.509Z,2.15
2022-08-09T07:02:29.445Z,2.92
2022-08-09T07:04:58.669Z,2.55
2022-08-09T07:08:00.632Z,2.58
2022-08-09T07:10:29.918Z,2.58
2022-08-09T07:13:00.260Z,2.78
2022-08-09T07:16:36.436Z,2.58
2022-08-09T07:18:34.065Z,2.30
2022-08-09T07:21:01.729Z,2.15
2022-08-09T07:23:29.769Z,2.20
2022-08-09T07:26:05.333Z,2.35
2022-08-09T07:28:34.626Z,2.38
2022-08-09T07:31:04.668Z,3.17
2022-08-09T07:33:53.187Z,2.35
2022-08-09T07:36:20.318Z,2.53
2022-08-09T07:38:56.819Z,1.02
2022-08-09T07:41:32.935Z,2.53
2022-08-09T07:44:06.401Z,2.60
2022-08-09T07:46:34.586Z,2.17
2022-08-09T07:49:05.553Z,2.25
2022-08-09T07:52:03.636Z,1.60
2022-08-09T07:54:27.901Z,2.20
2022-08-09T07:56:59.283Z,1.85
2022-08-09T07:59:45.367Z,2.20
2022-08-09T08:02:19.184Z,1.70
2022-08-09T08:04:48.625Z,1.10
2022-08-09T08:08:06.180Z,1.60
2022-08-09T08:10:08.765Z,1.88
2022-08-09T08:12:43.263Z,1.65
2022-08-09T08:15:13.851Z,1.88
2022-08-09T08:17:54.133Z,1.90
2022-08-09T08:20:29.315Z,1.60
2022-08-09T08:23:03.504Z,1.67
2022-08-09T08:25:43.840Z,0.68
2022-08-09T08:28:14.261Z,1.42
2022-08-09T08:30:42.828Z,1.30
2022-08-09T08:33:12.027Z,1.30
2022-08-09T08:35:59.012Z,1.90
2022-08-09T08:38:28.080Z,1.50
2022-08-09T08:40:56.905Z,1.83
2022-08-09T08:43:27.233Z,1.70
2022-08-09T08:46:10.292Z,1.45
2022-08-09T08:48:51.230Z,0.77
2022-08-09T08:51:21.370Z,1.05
2022-08-09T08:54:03.584Z,0.95
2022-08-09T08:56:34.383Z,1.30
2022-08-09T08:59:07.980Z,0.70
2022-08-09T09:01:52.942Z,1.40
2022-08-09T09:04:26.977Z,1.25
2022-08-09T09:06:57.560Z,0.90
2022-08-09T09:09:58.272Z,1.15
2022-08-09T09:12:16.824Z,1.30
2022-08-09T09:14:46.638Z,1.30
2022-08-09T09:17:16.442Z,0.82
2022-08-09T09:19:44.807Z,1.15
2022-08-09T09:22:13.891Z,1.40
2022-08-09T09:24:44.660Z,1.50
2022-08-09T09:28:03.315Z,1.27
2022-08-09T09:30:28.880Z,1.90
2022-08-09T09:33:15.576Z,1.33
2022-08-09T09:36:02.846Z,1.13
2022-08-09T09:38:45.139Z,1.30
2022-08-09T09:41:13.251Z,1.40
2022-08-09T09:44:10.750Z,1.05
2022-08-09T09:46:51.557Z,0.90
2022-08-09T09:49:23.513Z,1.10
2022-08-09T09:52:35.696Z,1.17
2022-08-09T09:55:01.994Z,1.20
2022-08-09T09:58:00.952Z,1.17
2022-08-09T10:00:24.206Z,1.70
2022-08-09T10:02:55.852Z,1.00
2022-08-09T10:05:27.183Z,1.10
2022-08-09T10:08:27.715Z,1.10
2022-08-09T10:10:56.329Z,1.10
2022-08-09T10:13:45.204Z,0.85
2022-08-09T10:16:57.200Z,0.68
2022-08-09T10:19:02.551Z,1.17
2022-08-09T10:21:32.441Z,1.20
2022-08-09T10:24:04.007Z,1.20
2022-08-09T10:26:32.251Z,1.13
2022-08-09T10:29:35.912Z,1.50
2022-08-09T10:34:37.312Z,0.80
2022-08-09T10:37:09.665Z,0.55
2022-08-09T10:39:49.537Z,1.40
2022-08-09T10:42:18.603Z,1.30
2022-08-09T10:44:48.089Z,0.95
2022-08-09T10:48:19.241Z,1.60
2022-08-09T10:50:31.454Z,1.35
2022-08-09T10:53:10.431Z,1.15
2022-08-09T10:55:58.699Z,1.20
2022-08-09T10:58:30.875Z,1.27
2022-08-09T11:03:05.682Z,0.88
2022-08-09T11:04:04.040Z,1.52
2022-08-09T11:06:37.379Z,1.63
2022-08-09T11:09:16.146Z,1.35
2022-08-09T11:12:05.906Z,1.70
2022-08-09T11:14:35.357Z,1.15
2022-08-09T11:17:03.481Z,0.57
2022-08-09T11:20:10.019Z,1.20
2022-08-09T11:22:57.016Z,0.85
2022-08-09T11:25:47.200Z,0.88
2022-08-09T11:28:34.524Z,1.20
2022-08-09T11:31:36.385Z,0.90
2022-08-09T11:34:05.063Z,0.73
2022-08-09T11:36:39.797Z,0.80
2022-08-09T11:39:07.753Z,0.95
2022-08-09T11:41:40.702Z,0.77
2022-08-09T11:44:08.605Z,1.35
2022-08-09T11:46:52.671Z,1.08
2022-08-09T11:49:28.233Z,0.88
2022-08-09T11:53:55.178Z,0.93
2022-08-09T11:55:34.695Z,0.60
2022-08-09T11:58:33.182Z,1.00
2022-08-09T12:01:03.493Z,0.80
2022-08-09T12:03:57.552Z,0.30
2022-08-09T12:06:32.787Z,0.80
2022-08-09T12:09:04.292Z,0.50
2022-08-09T12:11:44.710Z,0.43
2022-08-09T12:14:36.446Z,0.65
2022-08-09T12:17:27.687Z,0.82
2022-08-09T12:19:59.385Z,1.15
2022-08-09T12:22:29.122Z,0.70
2022-08-09T12:25:11.319Z,0.52
2022-08-09T12:29:11.407Z,0.80
2022-08-09T12:30:35.696Z,0.80
2022-08-09T12:33:06.194Z,1.00
2022-08-09T12:35:41.000Z,0.93
2022-08-09T12:38:37.537Z,1.00
2022-08-09T12:41:07.276Z,0.95
2022-08-09T12:44:05.339Z,0.82
2022-08-09T12:46:24.820Z,0.80
2022-08-09T12:48:53.207Z,0.80
2022-08-09T12:51:30.381Z,0.70
2022-08-09T12:54:08.864Z,0.82
2022-08-09T12:56:50.977Z,0.43
2022-08-09T12:59:19.998Z,0.80
2022-08-09T13:02:01.310Z,0.98
2022-08-09T13:04:38.003Z,0.55
2022-08-09T13:07:13.489Z,1.10
2022-08-09T13:09:43.474Z,1.08
2022-08-09T13:12:23.783Z,0.82
2022-08-09T13:14:54.206Z,1.33
2022-08-09T13:17:44.290Z,0.80
2022-08-09T13:20:17.538Z,0.80
2022-08-09T13:23:05.693Z,0.70
2022-08-09T13:25:42.554Z,0.90
2022-08-09T13:28:11.657Z,0.80
2022-08-09T13:32:14.220Z,0.75
2022-08-09T13:33:53.472Z,0.70
2022-08-09T13:36:39.107Z,0.70
2022-08-09T13:41:51.584Z,1.00
2022-08-09T13:42:02.074Z,0.70
2022-08-09T13:44:30.139Z,0.90
2022-08-09T13:47:29.744Z,0.80
2022-08-09T13:49:58.072Z,0.60
2022-08-09T13:52:29.227Z,0.80
2022-08-09T13:55:00.043Z,0.47
2022-08-09T13:57:36.725Z,0.90
2022-08-09T14:00:08.776Z,0.50
2022-08-09T14:02:42.924Z,0.80
2022-08-09T14:05:58.696Z,1.10
2022-08-09T14:08:17.615Z,0.80
2022-08-09T14:10:52.284Z,1.10
2022-08-09T14:13:21.855Z,0.80
2022-08-09T14:16:09.711Z,0.80
2022-08-09T14:18:38.405Z,0.98
2022-08-09T14:21:07.586Z,0.75
2022-08-09T14:23:40.650Z,0.73
2022-08-09T14:26:23.276Z,0.60
2022-08-09T14:28:53.218Z,0.82
2022-08-09T14:31:23.677Z,0.80
2022-08-09T14:34:08.777Z,0.40
2022-08-09T14:36:39.875Z,0.90
2022-08-09T14:39:10.823Z,0.80
2022-08-09T14:41:41.630Z,0.60
2022-08-09T14:44:11.400Z,0.63
2022-08-09T14:47:04.781Z,0.40
2022-08-09T14:49:27.069Z,0.60
2022-08-09T14:51:58.614Z,0.77
2022-08-09T14:54:27.655Z,0.60
2022-08-09T14:56:58.975Z,0.60
2022-08-09T14:59:28.563Z,0.50
2022-08-09T15:01:56.657Z,0.90
2022-08-09T15:04:24.673Z,0.85
2022-08-09T15:06:52.336Z,0.60
2022-08-09T15:10:03.128Z,0.70
2022-08-09T15:12:09.909Z,0.80
2022-08-09T15:14:39.381Z,0.70
2022-08-09T15:17:09.537Z,0.60
2022-08-09T15:19:59.332Z,0.52
2022-08-09T15:22:25.881Z,0.70
2022-08-09T15:24:55.281Z,0.70
2022-08-09T15:27:22.929Z,0.70
2022-08-09T15:30:58.915Z,0.60
2022-08-09T15:32:38.577Z,0.63
2022-08-09T15:35:18.286Z,0.80
2022-08-09T15:37:57.062Z,0.70
2022-08-09T15:40:43.653Z,0.60
2022-08-09T15:43:13.570Z,0.70
2022-08-09T15:46:08.027Z,0.50
2022-08-09T15:48:31.836Z,0.47
2022-08-09T15:50:59.771Z,0.70
2022-08-09T15:54:03.417Z,0.50
2022-08-09T15:56:29.400Z,0.65
2022-08-09T15:58:58.893Z,0.77
2022-08-09T16:01:26.715Z,0.50
2022-08-09T16:03:59.306Z,0.80
2022-08-09T16:06:34.851Z,0.80
2022-08-09T16:09:05.448Z,0.60
2022-08-09T16:11:34.753Z,0.70
2022-08-09T16:14:06.852Z,0.50
2022-08-09T16:16:37.179Z,0.60
2022-08-09T16:19:05.876Z,0.60
2022-08-09T16:21:35.429Z,0.60
2022-08-09T16:24:04.619Z,0.70
2022-08-09T16:26:36.409Z,0.60
2022-08-09T16:29:10.579Z,0.73
2022-08-09T16:32:17.893Z,0.60
2022-08-09T16:34:28.998Z,0.77
2022-08-09T16:36:56.958Z,0.55
2022-08-09T16:39:25.897Z,0.60
2022-08-09T16:42:04.147Z,1.00
2022-08-09T16:44:32.446Z,0.50
2022-08-09T16:47:04.128Z,0.47
2022-08-09T16:50:29.686Z,0.65
2022-08-09T16:52:37.089Z,0.65
2022-08-09T16:55:05.119Z,0.60
2022-08-09T16:58:08.455Z,0.70
2022-08-09T17:00:24.974Z,0.68
2022-08-09T17:02:52.729Z,0.68
2022-08-09T17:05:25.121Z,0.60
2022-08-09T17:08:42.959Z,0.50
2022-08-09T17:11:00.411Z,0.40
2022-08-09T17:13:34.287Z,0.80
2022-08-09T17:16:02.655Z,0.40
2022-08-09T17:18:30.422Z,0.65
2022-08-09T17:20:58.621Z,0.57
2022-08-09T17:24:19.947Z,0.60
2022-08-09T17:26:17.488Z,0.52
2022-08-09T17:28:59.507Z,0.50
2022-08-09T17:31:29.869Z,0.50
2022-08-09T17:34:06.457Z,0.47
2022-08-09T17:36:54.116Z,0.70
2022-08-09T17:39:24.868Z,0.63
2022-08-09T17:41:52.940Z,0.52
2022-08-09T17:44:47.095Z,0.50
2022-08-09T17:47:10.501Z,0.50
2022-08-09T17:49:54.276Z,0.57
2022-08-09T17:52:26.695Z,0.60
2022-08-09T17:54:55.293Z,0.50
2022-08-09T17:58:04.025Z,1.02
2022-08-09T18:00:15.221Z,0.60
2022-08-09T18:02:50.403Z,0.73
2022-08-09T18:05:38.773Z,0.90
2022-08-09T18:08:13.356Z,1.38
2022-08-09T18:10:45.968Z,0.60
2022-08-09T18:13:39.343Z,0.70
2022-08-09T18:16:12.086Z,0.60
2022-08-09T18:18:43.384Z,0.50
2022-08-09T18:21:23.589Z,0.73
2022-08-09T18:24:09.921Z,0.65
2022-08-09T18:26:46.609Z,0.70
2022-08-09T18:30:42.911Z,0.80
2022-08-09T18:32:04.932Z,0.60
2022-08-09T18:34:35.359Z,0.73
2022-08-09T18:37:03.596Z,0.55
2022-08-09T18:39:32.465Z,0.60
2022-08-09T18:42:01.088Z,0.73
2022-08-09T18:44:29.035Z,0.50
2022-08-09T18:47:05.149Z,0.50
2022-08-09T18:49:43.625Z,0.63
2022-08-09T18:52:15.863Z,0.40
2022-08-09T18:54:52.511Z,0.55
2022-08-09T18:57:22.296Z,0.93
2022-08-09T18:59:52.461Z,0.70
2022-08-09T19:02:32.097Z,0.73
2022-08-09T19:05:03.884Z,0.70
2022-08-09T19:07:43.279Z,0.70
2022-08-09T19:10:37.609Z,0.73
2022-08-09T19:13:22.502Z,0.60
2022-08-09T19:15:56.866Z,0.73
2022-08-09T19:18:33.755Z,0.70
2022-08-09T19:21:09.270Z,0.50
2022-08-09T19:24:32.219Z,0.98
2022-08-09T19:26:29.430Z,0.60
2022-08-09T19:29:01.764Z,0.45
2022-08-09T19:31:30.427Z,0.80
2022-08-09T19:33:58.318Z,0.88
2022-08-09T19:36:30.911Z,0.60
2022-08-09T19:39:03.557Z,0.70
2022-08-09T19:41:35.616Z,0.70
2022-08-09T19:44:03.714Z,0.70
2022-08-09T19:46:35.007Z,0.70
2022-08-09T19:50:06.831Z,0.80
2022-08-09T19:51:55.325Z,0.93
2022-08-09T19:54:24.942Z,0.70
2022-08-09T19:56:53.073Z,0.70
2022-08-09T19:59:58.857Z,0.75
2022-08-09T20:02:17.132Z,0.98
2022-08-09T20:04:57.745Z,0.88
2022-08-09T20:07:56.898Z,0.70
2022-08-09T20:10:17.783Z,0.68
2022-08-09T20:12:52.016Z,1.00
2022-08-09T20:16:37.502Z,1.00
2022-08-09T20:18:08.351Z,0.90
2022-08-09T20:20:37.629Z,0.80
2022-08-09T20:23:07.679Z,0.90
2022-08-09T20:25:51.314Z,0.90
2022-08-09T20:28:27.436Z,0.80
2022-08-09T20:31:04.671Z,0.90
2022-08-09T20:33:40.936Z,0.90
2022-08-09T20:36:11.667Z,0.90
2022-08-09T20:41:35.530Z,1.20
2022-08-09T20:44:06.819Z,1.05
2022-08-09T20:46:43.903Z,0.65
2022-08-09T20:49:12.971Z,1.05
2022-08-09T20:51:42.258Z,0.82
2022-08-09T20:54:16.394Z,0.90
2022-08-09T20:56:46.664Z,0.85
2022-08-09T20:59:17.332Z,0.80
2022-08-09T21:01:50.414Z,1.00
2022-08-09T21:05:57.009Z,1.08
2022-08-09T21:07:11.834Z,1.23
2022-08-09T21:09:55.715Z,0.90
2022-08-09T21:15:13.550Z,0.95
2022-08-09T21:18:21.374Z,0.75
2022-08-09T21:20:29.857Z,1.00
2022-08-09T21:22:58.325Z,1.05
2022-08-09T21:25:55.978Z,1.30
2022-08-09T21:28:34.435Z,0.88
2022-08-09T21:31:16.679Z,0.88
2022-08-09T21:33:50.703Z,1.30
2022-08-09T21:36:20.558Z,1.00
2022-08-09T21:38:57.891Z,1.20
2022-08-09T21:42:03.776Z,1.00
2022-08-09T21:44:34.170Z,1.00
2022-08-09T21:47:03.881Z,1.23
2022-08-09T21:49:39.675Z,0.80
2022-08-09T21:52:17.110Z,0.85
2022-08-09T21:54:59.610Z,1.00
2022-08-09T21:57:38.665Z,0.85
2022-08-09T22:00:25.993Z,1.40
2022-08-09T22:02:59.168Z,0.70
2022-08-09T22:05:35.629Z,1.00
2022-08-09T22:08:06.256Z,1.10
2022-08-09T22:10:33.991Z,1.00
2022-08-09T22:13:11.219Z,0.95
2022-08-09T22:15:39.295Z,0.80
2022-08-09T22:18:11.983Z,1.10
2022-08-09T22:20:40.063Z,1.10
2022-08-09T22:23:10.471Z,0.90
2022-08-09T22:26:06.604Z,0.70
2022-08-09T22:28:29.641Z,1.17
2022-08-09T22:31:00.718Z,0.80
2022-08-09T22:33:42.623Z,0.95
2022-08-09T22:36:19.352Z,0.70
2022-08-09T22:38:47.573Z,1.10
2022-08-09T22:41:16.079Z,0.82
2022-08-09T22:44:02.116Z,0.88
2022-08-09T22:48:16.876Z,0.93
2022-08-09T22:49:19.189Z,0.82
2022-08-09T22:51:49.562Z,1.13
2022-08-09T22:54:27.006Z,0.93
2022-08-09T22:56:57.185Z,0.80
2022-08-09T22:59:57.932Z,1.05
2022-08-09T23:02:15.902Z,0.55
2022-08-09T23:04:54.091Z,1.00
2022-08-09T23:08:23.018Z,1.20
2022-08-09T23:10:28.241Z,0.90
2022-08-09T23:12:55.849Z,0.88
2022-08-09T23:15:25.016Z,1.02
2022-08-09T23:17:52.621Z,0.90
2022-08-09T23:20:20.347Z,0.90
2022-08-09T23:22:47.993Z,0.80
2022-08-09T23:25:15.620Z,1.33
2022-08-09T23:28:14.210Z,0.68
2022-08-09T23:30:32.846Z,1.08
2022-08-09T23:33:00.466Z,1.15
2022-08-09T23:35:28.091Z,1.55
2022-08-09T23:37:55.729Z,1.10
2022-08-09T23:40:23.408Z,0.90
2022-08-09T23:42:51.034Z,0.82
2022-08-09T23:45:37.506Z,1.13
2022-08-09T23:48:09.149Z,0.70
2022-08-09T23:50:37.095Z,0.82
2022-08-09T23:53:04.748Z,0.93
2022-08-09T23:55:33.340Z,0.93
2022-08-09T23:58:09.274Z,1.15
